sensor_id;sensor_type;location;lat;lon;timestamp;temperature;humidity
4757;DHT22;2392;52.578;13.426;2023-02-18T00:00:55;7.50;99.90
4757;DHT22;2392;52.578;13.426;2023-02-18T00:03:22;7.50;99.90
4757;DHT22;2392;52.578;13.426;2023-02-18T00:05:52;7.40;99.90
4757;DHT22;2392;52.578;13.426;2023-02-18T00:08:19;7.40;99.90
4757;DHT22;2392;52.578;13.426;2023-02-18T00:10:47;7.40;99.90
4757;DHT22;2392;52.578;13.426;2023-02-18T00:13:14;7.40;99.90
4757;DHT22;2392;52.578;13.426;2023-02-18T00:15:41;7.30;99.90
4757;DHT22;2392;52.578;13.426;2023-02-18T00:18:08;7.30;99.90
4757;DHT22;2392;52.578;13.426;2023-02-18T00:20:37;7.30;99.90
4757;DHT22;2392;52.578;13.426;2023-02-18T00:23:06;7.30;99.90
4757;DHT22;2392;52.578;13.426;2023-02-18T00:25:33;7.30;99.90
4757;DHT22;2392;52.578;13.426;2023-02-18T00:28:00;7.30;99.90
4757;DHT22;2392;52.578;13.426;2023-02-18T00:30:27;7.30;99.90
4757;DHT22;2392;52.578;13.426;2023-02-18T00:32:54;7.20;99.90
4757;DHT22;2392;52.578;13.426;2023-02-18T00:35:22;7.20;99.90
4757;DHT22;2392;52.578;13.426;2023-02-18T00:37:50;7.20;99.90
4757;DHT22;2392;52.578;13.426;2023-02-18T00:40:20;7.20;99.90
4757;DHT22;2392;52.578;13.426;2023-02-18T00:42:47;7.20;99.90
4757;DHT22;2392;52.578;13.426;2023-02-18T00:45:14;7.20;99.90
4757;DHT22;2392;52.578;13.426;2023-02-18T00:47:41;7.10;99.90
4757;DHT22;2392;52.578;13.426;2023-02-18T00:50:09;7.10;99.90
4757;DHT22;2392;52.578;13.426;2023-02-18T00:52:36;7.10;99.90
4757;DHT22;2392;52.578;13.426;2023-02-18T00:55:04;7.00;99.90
4757;DHT22;2392;52.578;13.426;2023-02-18T00:57:33;7.00;99.90
4757;DHT22;2392;52.578;13.426;2023-02-18T01:00:00;7.00;99.90
4757;DHT22;2392;52.578;13.426;2023-02-18T01:02:27;6.90;99.90
4757;DHT22;2392;52.578;13.426;2023-02-18T01:04:54;6.80;99.90
4757;DHT22;2392;52.578;13.426;2023-02-18T01:07:21;6.80;99.90
4757;DHT22;2392;52.578;13.426;2023-02-18T01:09:48;6.80;99.90
4757;DHT22;2392;52.578;13.426;2023-02-18T01:12:16;6.70;99.90
4757;DHT22;2392;52.578;13.426;2023-02-18T01:14:44;6.80;99.90
4757;DHT22;2392;52.578;13.426;2023-02-18T01:17:11;6.80;99.90
4757;DHT22;2392;52.578;13.426;2023-02-18T01:19:39;6.70;99.90
4757;DHT22;2392;52.578;13.426;2023-02-18T01:22:06;6.80;99.90
4757;DHT22;2392;52.578;13.426;2023-02-18T01:24:33;6.80;99.90
4757;DHT22;2392;52.578;13.426;2023-02-18T01:27:00;6.80;99.90
4757;DHT22;2392;52.578;13.426;2023-02-18T01:29:27;6.70;99.90
4757;DHT22;2392;52.578;13.426;2023-02-18T01:31:56;6.70;99.90
4757;DHT22;2392;52.578;13.426;2023-02-18T01:34:23;6.70;99.90
4757;DHT22;2392;52.578;13.426;2023-02-18T01:36:50;6.70;99.90
4757;DHT22;2392;52.578;13.426;2023-02-18T01:39:17;6.70;99.90
4757;DHT22;2392;52.578;13.426;2023-02-18T01:41:44;6.70;99.90
4757;DHT22;2392;52.578;13.426;2023-02-18T01:44:13;6.70;99.90
4757;DHT22;2392;52.578;13.426;2023-02-18T01:46:41;6.70;99.90
4757;DHT22;2392;52.578;13.426;2023-02-18T01:49:11;6.60;99.90
4757;DHT22;2392;52.578;13.426;2023-02-18T01:51:42;6.60;99.90
4757;DHT22;2392;52.578;13.426;2023-02-18T01:54:14;6.60;99.90
4757;DHT22;2392;52.578;13.426;2023-02-18T01:56:45;6.60;99.90
4757;DHT22;2392;52.578;13.426;2023-02-18T01:59:17;6.60;99.90
4757;DHT22;2392;52.578;13.426;2023-02-18T02:01:45;6.60;99.90
4757;DHT22;2392;52.578;13.426;2023-02-18T02:04:13;6.60;99.90
4757;DHT22;2392;52.578;13.426;2023-02-18T02:06:41;6.70;99.90
4757;DHT22;2392;52.578;13.426;2023-02-18T02:09:10;6.60;99.90
4757;DHT22;2392;52.578;13.426;2023-02-18T02:12:01;6.60;99.90
4757;DHT22;2392;52.578;13.426;2023-02-18T02:14:46;6.60;99.90
4757;DHT22;2392;52.578;13.426;2023-02-18T02:17:24;6.60;99.90
4757;DHT22;2392;52.578;13.426;2023-02-18T02:23:33;6.60;99.90
4757;DHT22;2392;52.578;13.426;2023-02-18T02:26:27;6.60;99.90
4757;DHT22;2392;52.578;13.426;2023-02-18T02:29:29;6.60;99.90
4757;DHT22;2392;52.578;13.426;2023-02-18T02:35:00;6.60;99.90
4757;DHT22;2392;52.578;13.426;2023-02-18T02:37:35;6.60;99.90
4757;DHT22;2392;52.578;13.426;2023-02-18T02:40:12;6.60;99.90
4757;DHT22;2392;52.578;13.426;2023-02-18T02:42:48;6.50;99.90
4757;DHT22;2392;52.578;13.426;2023-02-18T02:45:24;6.50;99.90
4757;DHT22;2392;52.578;13.426;2023-02-18T02:47:58;6.50;99.90
4757;DHT22;2392;52.578;13.426;2023-02-18T02:50:35;6.50;99.90
4757;DHT22;2392;52.578;13.426;2023-02-18T02:53:09;6.50;99.90
4757;DHT22;2392;52.578;13.426;2023-02-18T02:55:39;6.50;99.90
4757;DHT22;2392;52.578;13.426;2023-02-18T02:58:08;6.50;99.90
4757;DHT22;2392;52.578;13.426;2023-02-18T03:00:47;6.40;99.90
4757;DHT22;2392;52.578;13.426;2023-02-18T03:03:36;6.40;99.90
4757;DHT22;2392;52.578;13.426;2023-02-18T03:06:26;6.40;99.90
4757;DHT22;2392;52.578;13.426;2023-02-18T03:09:03;6.30;99.90
4757;DHT22;2392;52.578;13.426;2023-02-18T03:11:40;6.40;99.90
4757;DHT22;2392;52.578;13.426;2023-02-18T03:14:12;6.30;99.90
4757;DHT22;2392;52.578;13.426;2023-02-18T03:16:48;6.30;99.90
4757;DHT22;2392;52.578;13.426;2023-02-18T03:19:21;6.30;99.90
4757;DHT22;2392;52.578;13.426;2023-02-18T03:21:59;6.40;99.90
4757;DHT22;2392;52.578;13.426;2023-02-18T03:24:31;6.30;99.90
4757;DHT22;2392;52.578;13.426;2023-02-18T03:27:05;6.30;99.90
4757;DHT22;2392;52.578;13.426;2023-02-18T03:29:35;6.30;99.90
4757;DHT22;2392;52.578;13.426;2023-02-18T03:32:05;6.30;99.90
4757;DHT22;2392;52.578;13.426;2023-02-18T03:34:36;6.30;99.90
4757;DHT22;2392;52.578;13.426;2023-02-18T03:37:08;6.30;99.90
4757;DHT22;2392;52.578;13.426;2023-02-18T03:39:36;6.30;99.90
4757;DHT22;2392;52.578;13.426;2023-02-18T03:42:05;6.30;99.90
4757;DHT22;2392;52.578;13.426;2023-02-18T03:44:33;6.40;99.90
4757;DHT22;2392;52.578;13.426;2023-02-18T03:47:00;6.40;99.90
4757;DHT22;2392;52.578;13.426;2023-02-18T03:49:27;6.40;99.90
4757;DHT22;2392;52.578;13.426;2023-02-18T03:51:54;6.40;99.90
4757;DHT22;2392;52.578;13.426;2023-02-18T03:54:23;6.40;99.90
4757;DHT22;2392;52.578;13.426;2023-02-18T03:56:50;6.40;99.90
4757;DHT22;2392;52.578;13.426;2023-02-18T03:59:17;6.40;99.90
4757;DHT22;2392;52.578;13.426;2023-02-18T04:01:44;6.40;99.90
4757;DHT22;2392;52.578;13.426;2023-02-18T04:04:11;6.40;99.90
4757;DHT22;2392;52.578;13.426;2023-02-18T04:06:37;6.40;99.90
4757;DHT22;2392;52.578;13.426;2023-02-18T04:09:04;6.40;99.90
4757;DHT22;2392;52.578;13.426;2023-02-18T04:11:36;6.40;99.90
4757;DHT22;2392;52.578;13.426;2023-02-18T04:14:03;6.40;99.90
4757;DHT22;2392;52.578;13.426;2023-02-18T04:16:30;6.40;99.90
4757;DHT22;2392;52.578;13.426;2023-02-18T04:18:57;6.30;99.90
4757;DHT22;2392;52.578;13.426;2023-02-18T04:21:24;6.30;99.90
4757;DHT22;2392;52.578;13.426;2023-02-18T04:23:52;6.30;99.90
4757;DHT22;2392;52.578;13.426;2023-02-18T04:26:19;6.20;99.90
4757;DHT22;2392;52.578;13.426;2023-02-18T04:28:47;6.30;99.90
4757;DHT22;2392;52.578;13.426;2023-02-18T04:31:14;6.30;99.90
4757;DHT22;2392;52.578;13.426;2023-02-18T04:33:41;6.20;99.90
4757;DHT22;2392;52.578;13.426;2023-02-18T04:36:09;6.20;99.90
4757;DHT22;2392;52.578;13.426;2023-02-18T04:38:35;6.30;99.90
4757;DHT22;2392;52.578;13.426;2023-02-18T04:41:03;6.20;99.90
4757;DHT22;2392;52.578;13.426;2023-02-18T04:43:30;6.30;99.90
4757;DHT22;2392;52.578;13.426;2023-02-18T04:45:58;6.30;99.90
4757;DHT22;2392;52.578;13.426;2023-02-18T04:48:25;6.30;99.90
4757;DHT22;2392;52.578;13.426;2023-02-18T04:50:52;6.30;99.90
4757;DHT22;2392;52.578;13.426;2023-02-18T04:53:19;6.20;99.90
4757;DHT22;2392;52.578;13.426;2023-02-18T04:55:48;6.20;99.90
4757;DHT22;2392;52.578;13.426;2023-02-18T04:58:16;6.20;99.90
4757;DHT22;2392;52.578;13.426;2023-02-18T05:00:43;6.20;99.90
4757;DHT22;2392;52.578;13.426;2023-02-18T05:03:11;6.20;99.90
4757;DHT22;2392;52.578;13.426;2023-02-18T05:05:38;6.20;99.90
4757;DHT22;2392;52.578;13.426;2023-02-18T05:08:06;6.20;99.90
4757;DHT22;2392;52.578;13.426;2023-02-18T05:10:33;6.20;99.90
4757;DHT22;2392;52.578;13.426;2023-02-18T05:13:03;6.20;99.90
4757;DHT22;2392;52.578;13.426;2023-02-18T05:15:30;6.20;99.90
4757;DHT22;2392;52.578;13.426;2023-02-18T05:17:57;6.10;99.90
4757;DHT22;2392;52.578;13.426;2023-02-18T05:20:25;6.20;99.90
4757;DHT22;2392;52.578;13.426;2023-02-18T05:22:52;6.20;99.90
4757;DHT22;2392;52.578;13.426;2023-02-18T05:25:19;6.20;99.90
4757;DHT22;2392;52.578;13.426;2023-02-18T05:27:46;6.20;99.90
4757;DHT22;2392;52.578;13.426;2023-02-18T05:30:14;6.20;99.90
4757;DHT22;2392;52.578;13.426;2023-02-18T05:32:40;6.20;99.90
4757;DHT22;2392;52.578;13.426;2023-02-18T05:35:08;6.30;99.90
4757;DHT22;2392;52.578;13.426;2023-02-18T05:37:36;6.30;99.90
4757;DHT22;2392;52.578;13.426;2023-02-18T05:40:05;6.30;99.90
4757;DHT22;2392;52.578;13.426;2023-02-18T05:42:32;6.40;99.90
4757;DHT22;2392;52.578;13.426;2023-02-18T05:44:59;6.40;99.90
4757;DHT22;2392;52.578;13.426;2023-02-18T05:47:25;6.40;99.90
4757;DHT22;2392;52.578;13.426;2023-02-18T05:49:52;6.50;99.90
4757;DHT22;2392;52.578;13.426;2023-02-18T05:52:20;6.50;99.90
4757;DHT22;2392;52.578;13.426;2023-02-18T05:54:49;6.50;99.90
4757;DHT22;2392;52.578;13.426;2023-02-18T05:57:16;6.50;99.90
4757;DHT22;2392;52.578;13.426;2023-02-18T05:59:43;6.60;99.90
4757;DHT22;2392;52.578;13.426;2023-02-18T06:02:10;6.60;99.90
4757;DHT22;2392;52.578;13.426;2023-02-18T06:04:37;6.60;99.90
4757;DHT22;2392;52.578;13.426;2023-02-18T06:07:05;6.60;99.90
4757;DHT22;2392;52.578;13.426;2023-02-18T06:09:32;6.70;99.90
4757;DHT22;2392;52.578;13.426;2023-02-18T06:12:01;6.70;99.90
4757;DHT22;2392;52.578;13.426;2023-02-18T06:14:28;6.70;99.90
4757;DHT22;2392;52.578;13.426;2023-02-18T06:16:54;6.70;99.90
4757;DHT22;2392;52.578;13.426;2023-02-18T06:19:22;6.70;99.90
4757;DHT22;2392;52.578;13.426;2023-02-18T06:21:49;6.80;99.90
4757;DHT22;2392;52.578;13.426;2023-02-18T06:24:16;6.80;99.90
4757;DHT22;2392;52.578;13.426;2023-02-18T06:26:44;6.80;99.90
4757;DHT22;2392;52.578;13.426;2023-02-18T06:29:12;6.80;99.90
4757;DHT22;2392;52.578;13.426;2023-02-18T06:31:39;6.80;99.90
4757;DHT22;2392;52.578;13.426;2023-02-18T06:34:06;6.90;99.90
4757;DHT22;2392;52.578;13.426;2023-02-18T06:36:33;6.90;99.90
4757;DHT22;2392;52.578;13.426;2023-02-18T06:39:02;6.90;99.90
4757;DHT22;2392;52.578;13.426;2023-02-18T06:41:29;6.90;99.90
4757;DHT22;2392;52.578;13.426;2023-02-18T06:43:56;6.90;99.90
4757;DHT22;2392;52.578;13.426;2023-02-18T06:46:24;7.00;99.90
4757;DHT22;2392;52.578;13.426;2023-02-18T06:48:51;7.00;99.90
4757;DHT22;2392;52.578;13.426;2023-02-18T06:51:18;7.00;99.90
4757;DHT22;2392;52.578;13.426;2023-02-18T06:53:45;7.10;99.90
4757;DHT22;2392;52.578;13.426;2023-02-18T06:56:12;7.10;99.90
4757;DHT22;2392;52.578;13.426;2023-02-18T06:58:39;7.10;99.90
4757;DHT22;2392;52.578;13.426;2023-02-18T07:01:06;7.10;99.90
4757;DHT22;2392;52.578;13.426;2023-02-18T07:03:34;7.10;99.90
4757;DHT22;2392;52.578;13.426;2023-02-18T07:06:01;7.10;99.90
4757;DHT22;2392;52.578;13.426;2023-02-18T07:08:28;7.10;99.90
4757;DHT22;2392;52.578;13.426;2023-02-18T07:10:57;7.10;99.90
4757;DHT22;2392;52.578;13.426;2023-02-18T07:13:24;7.10;99.90
4757;DHT22;2392;52.578;13.426;2023-02-18T07:15:52;7.10;99.90
4757;DHT22;2392;52.578;13.426;2023-02-18T07:18:19;7.20;99.90
4757;DHT22;2392;52.578;13.426;2023-02-18T07:20:48;7.20;99.90
4757;DHT22;2392;52.578;13.426;2023-02-18T07:23:15;7.20;99.90
4757;DHT22;2392;52.578;13.426;2023-02-18T07:25:41;7.20;99.90
4757;DHT22;2392;52.578;13.426;2023-02-18T07:28:08;7.30;99.90
4757;DHT22;2392;52.578;13.426;2023-02-18T07:30:35;7.30;99.90
4757;DHT22;2392;52.578;13.426;2023-02-18T07:33:03;7.40;99.90
4757;DHT22;2392;52.578;13.426;2023-02-18T07:35:30;7.40;99.90
4757;DHT22;2392;52.578;13.426;2023-02-18T07:37:58;7.40;99.90
4757;DHT22;2392;52.578;13.426;2023-02-18T07:40:27;7.40;99.90
4757;DHT22;2392;52.578;13.426;2023-02-18T07:42:54;7.40;99.90
4757;DHT22;2392;52.578;13.426;2023-02-18T07:45:21;7.40;99.90
4757;DHT22;2392;52.578;13.426;2023-02-18T07:47:48;7.50;99.90
4757;DHT22;2392;52.578;13.426;2023-02-18T07:50:15;7.50;99.90
4757;DHT22;2392;52.578;13.426;2023-02-18T07:52:42;7.60;99.90
4757;DHT22;2392;52.578;13.426;2023-02-18T07:55:10;7.60;99.90
4757;DHT22;2392;52.578;13.426;2023-02-18T07:57:38;7.70;99.90
4757;DHT22;2392;52.578;13.426;2023-02-18T08:00:22;7.70;99.90
4757;DHT22;2392;52.578;13.426;2023-02-18T08:02:49;7.70;99.90
4757;DHT22;2392;52.578;13.426;2023-02-18T08:05:17;7.60;99.90
4757;DHT22;2392;52.578;13.426;2023-02-18T08:07:44;7.60;99.90
4757;DHT22;2392;52.578;13.426;2023-02-18T08:10:12;7.60;99.90
4757;DHT22;2392;52.578;13.426;2023-02-18T08:12:39;7.70;99.90
4757;DHT22;2392;52.578;13.426;2023-02-18T08:15:06;7.70;99.90
4757;DHT22;2392;52.578;13.426;2023-02-18T08:17:34;7.70;99.90
4757;DHT22;2392;52.578;13.426;2023-02-18T08:20:01;7.70;99.90
4757;DHT22;2392;52.578;13.426;2023-02-18T08:22:28;7.70;99.90
4757;DHT22;2392;52.578;13.426;2023-02-18T08:24:55;7.70;99.90
4757;DHT22;2392;52.578;13.426;2023-02-18T08:27:24;7.60;99.90
4757;DHT22;2392;52.578;13.426;2023-02-18T08:29:51;7.60;99.90
4757;DHT22;2392;52.578;13.426;2023-02-18T08:32:18;7.60;99.90
4757;DHT22;2392;52.578;13.426;2023-02-18T08:34:45;7.50;99.90
4757;DHT22;2392;52.578;13.426;2023-02-18T08:37:12;7.50;99.90
4757;DHT22;2392;52.578;13.426;2023-02-18T08:39:39;7.50;99.90
4757;DHT22;2392;52.578;13.426;2023-02-18T08:42:06;7.50;99.90
4757;DHT22;2392;52.578;13.426;2023-02-18T08:44:35;7.50;99.90
4757;DHT22;2392;52.578;13.426;2023-02-18T08:47:02;7.50;99.90
4757;DHT22;2392;52.578;13.426;2023-02-18T08:49:29;7.50;99.90
4757;DHT22;2392;52.578;13.426;2023-02-18T08:51:56;7.50;99.90
4757;DHT22;2392;52.578;13.426;2023-02-18T08:54:24;7.50;99.90
4757;DHT22;2392;52.578;13.426;2023-02-18T08:56:54;7.50;99.90
4757;DHT22;2392;52.578;13.426;2023-02-18T08:59:22;7.50;99.90
4757;DHT22;2392;52.578;13.426;2023-02-18T09:01:51;7.50;99.90
4757;DHT22;2392;52.578;13.426;2023-02-18T09:04:18;7.50;99.90
4757;DHT22;2392;52.578;13.426;2023-02-18T09:06:46;7.50;99.90
4757;DHT22;2392;52.578;13.426;2023-02-18T09:09:13;7.50;99.90
4757;DHT22;2392;52.578;13.426;2023-02-18T09:11:40;7.40;99.90
4757;DHT22;2392;52.578;13.426;2023-02-18T09:14:07;7.40;99.90
4757;DHT22;2392;52.578;13.426;2023-02-18T09:16:34;7.30;99.90
4757;DHT22;2392;52.578;13.426;2023-02-18T09:19:04;7.30;99.90
4757;DHT22;2392;52.578;13.426;2023-02-18T09:21:31;7.30;99.90
4757;DHT22;2392;52.578;13.426;2023-02-18T09:23:58;7.30;99.90
4757;DHT22;2392;52.578;13.426;2023-02-18T09:26:26;7.20;99.90
4757;DHT22;2392;52.578;13.426;2023-02-18T09:28:55;7.20;99.90
4757;DHT22;2392;52.578;13.426;2023-02-18T09:31:25;7.20;99.90
4757;DHT22;2392;52.578;13.426;2023-02-18T09:33:54;7.10;99.90
4757;DHT22;2392;52.578;13.426;2023-02-18T09:36:23;7.20;99.90
4757;DHT22;2392;52.578;13.426;2023-02-18T09:38:50;7.20;99.90
4757;DHT22;2392;52.578;13.426;2023-02-18T09:41:25;7.20;99.90
4757;DHT22;2392;52.578;13.426;2023-02-18T09:43:57;7.20;99.90
4757;DHT22;2392;52.578;13.426;2023-02-18T09:46:28;7.30;99.90
4757;DHT22;2392;52.578;13.426;2023-02-18T09:48:57;7.30;99.90
4757;DHT22;2392;52.578;13.426;2023-02-18T09:51:28;7.30;99.90
4757;DHT22;2392;52.578;13.426;2023-02-18T09:53:55;7.40;99.90
4757;DHT22;2392;52.578;13.426;2023-02-18T09:56:26;7.40;99.90
4757;DHT22;2392;52.578;13.426;2023-02-18T09:58:54;7.40;99.90
4757;DHT22;2392;52.578;13.426;2023-02-18T10:01:27;7.40;99.90
4757;DHT22;2392;52.578;13.426;2023-02-18T10:03:59;7.40;99.90
4757;DHT22;2392;52.578;13.426;2023-02-18T10:06:30;7.40;99.90
4757;DHT22;2392;52.578;13.426;2023-02-18T10:09:01;7.30;99.90
4757;DHT22;2392;52.578;13.426;2023-02-18T10:11:30;7.30;99.90
4757;DHT22;2392;52.578;13.426;2023-02-18T10:13:58;7.30;99.90
4757;DHT22;2392;52.578;13.426;2023-02-18T10:16:27;7.30;99.90
4757;DHT22;2392;52.578;13.426;2023-02-18T10:18:56;7.20;99.90
4757;DHT22;2392;52.578;13.426;2023-02-18T10:21:28;7.20;99.90
4757;DHT22;2392;52.578;13.426;2023-02-18T10:24:00;7.10;99.90
4757;DHT22;2392;52.578;13.426;2023-02-18T10:26:30;7.10;99.90
4757;DHT22;2392;52.578;13.426;2023-02-18T10:28:59;7.00;99.90
4757;DHT22;2392;52.578;13.426;2023-02-18T10:31:29;7.00;99.90
4757;DHT22;2392;52.578;13.426;2023-02-18T10:34:00;7.00;99.90
4757;DHT22;2392;52.578;13.426;2023-02-18T10:36:35;7.10;99.90
4757;DHT22;2392;52.578;13.426;2023-02-18T10:39:21;7.10;99.90
4757;DHT22;2392;52.578;13.426;2023-02-18T10:42:04;7.10;99.90
4757;DHT22;2392;52.578;13.426;2023-02-18T10:44:40;7.10;99.90
4757;DHT22;2392;52.578;13.426;2023-02-18T10:47:17;7.10;99.90
4757;DHT22;2392;52.578;13.426;2023-02-18T10:49:59;7.20;99.90
4757;DHT22;2392;52.578;13.426;2023-02-18T10:52:33;7.20;99.90
4757;DHT22;2392;52.578;13.426;2023-02-18T10:55:05;7.10;99.90
4757;DHT22;2392;52.578;13.426;2023-02-18T10:57:34;7.00;99.90
4757;DHT22;2392;52.578;13.426;2023-02-18T11:00:03;7.10;99.90
4757;DHT22;2392;52.578;13.426;2023-02-18T11:02:37;7.00;99.90
4757;DHT22;2392;52.578;13.426;2023-02-18T11:05:17;7.00;99.90
4757;DHT22;2392;52.578;13.426;2023-02-18T11:07:49;7.00;99.90
4757;DHT22;2392;52.578;13.426;2023-02-18T11:10:18;7.10;99.90
4757;DHT22;2392;52.578;13.426;2023-02-18T11:12:50;7.10;99.90
4757;DHT22;2392;52.578;13.426;2023-02-18T11:15:19;7.20;99.90
4757;DHT22;2392;52.578;13.426;2023-02-18T11:17:48;7.20;99.90
4757;DHT22;2392;52.578;13.426;2023-02-18T11:20:29;7.20;99.90
4757;DHT22;2392;52.578;13.426;2023-02-18T11:23:14;7.20;99.90
4757;DHT22;2392;52.578;13.426;2023-02-18T11:25:52;7.20;99.90
4757;DHT22;2392;52.578;13.426;2023-02-18T11:28:41;7.20;99.90
4757;DHT22;2392;52.578;13.426;2023-02-18T11:31:14;7.20;99.90
4757;DHT22;2392;52.578;13.426;2023-02-18T11:33:43;7.20;99.90
4757;DHT22;2392;52.578;13.426;2023-02-18T11:36:18;7.30;99.90
4757;DHT22;2392;52.578;13.426;2023-02-18T11:38:53;7.30;99.90
4757;DHT22;2392;52.578;13.426;2023-02-18T11:41:29;7.40;99.90
4757;DHT22;2392;52.578;13.426;2023-02-18T11:43:57;7.40;99.90
4757;DHT22;2392;52.578;13.426;2023-02-18T11:46:25;7.30;99.90
4757;DHT22;2392;52.578;13.426;2023-02-18T11:48:53;7.30;99.90
4757;DHT22;2392;52.578;13.426;2023-02-18T11:51:24;7.30;99.90
4757;DHT22;2392;52.578;13.426;2023-02-18T11:53:58;7.30;99.90
4757;DHT22;2392;52.578;13.426;2023-02-18T11:56:28;7.20;99.90
4757;DHT22;2392;52.578;13.426;2023-02-18T11:58:56;7.30;99.90
4757;DHT22;2392;52.578;13.426;2023-02-18T12:01:37;7.30;99.90
4757;DHT22;2392;52.578;13.426;2023-02-18T12:04:10;7.30;99.90
4757;DHT22;2392;52.578;13.426;2023-02-18T12:06:43;7.50;99.90
4757;DHT22;2392;52.578;13.426;2023-02-18T12:09:19;7.50;99.90
4757;DHT22;2392;52.578;13.426;2023-02-18T12:11:50;7.60;99.90
4757;DHT22;2392;52.578;13.426;2023-02-18T12:14:20;7.70;99.90
4757;DHT22;2392;52.578;13.426;2023-02-18T12:17:12;7.80;99.90
4757;DHT22;2392;52.578;13.426;2023-02-18T12:19:55;7.90;99.90
4757;DHT22;2392;52.578;13.426;2023-02-18T12:22:40;7.90;99.90
4757;DHT22;2392;52.578;13.426;2023-02-18T12:25:54;7.90;99.90
4757;DHT22;2392;52.578;13.426;2023-02-18T12:28:34;8.00;99.90
4757;DHT22;2392;52.578;13.426;2023-02-18T12:31:22;8.00;99.90
4757;DHT22;2392;52.578;13.426;2023-02-18T12:34:05;8.00;99.90
4757;DHT22;2392;52.578;13.426;2023-02-18T12:36:46;8.10;99.90
4757;DHT22;2392;52.578;13.426;2023-02-18T12:39:26;8.20;99.90
4757;DHT22;2392;52.578;13.426;2023-02-18T12:42:11;8.20;99.90
4757;DHT22;2392;52.578;13.426;2023-02-18T12:44:53;8.30;99.90
4757;DHT22;2392;52.578;13.426;2023-02-18T12:47:44;8.30;99.90
4757;DHT22;2392;52.578;13.426;2023-02-18T12:50:33;8.50;99.90
4757;DHT22;2392;52.578;13.426;2023-02-18T12:53:33;8.60;99.90
4757;DHT22;2392;52.578;13.426;2023-02-18T12:56:23;8.80;99.90
4757;DHT22;2392;52.578;13.426;2023-02-18T12:59:06;8.90;99.90
4757;DHT22;2392;52.578;13.426;2023-02-18T13:01:44;9.00;99.90
4757;DHT22;2392;52.578;13.426;2023-02-18T13:04:35;9.10;99.90
4757;DHT22;2392;52.578;13.426;2023-02-18T13:07:29;9.20;99.90
4757;DHT22;2392;52.578;13.426;2023-02-18T13:10:09;9.30;99.90
4757;DHT22;2392;52.578;13.426;2023-02-18T13:12:43;9.40;99.90
4757;DHT22;2392;52.578;13.426;2023-02-18T13:15:18;9.50;99.90
4757;DHT22;2392;52.578;13.426;2023-02-18T13:17:48;9.60;99.90
4757;DHT22;2392;52.578;13.426;2023-02-18T13:20:21;9.70;99.90
4757;DHT22;2392;52.578;13.426;2023-02-18T13:22:51;9.80;99.90
4757;DHT22;2392;52.578;13.426;2023-02-18T13:25:18;9.90;99.90
4757;DHT22;2392;52.578;13.426;2023-02-18T13:27:52;9.90;99.90
4757;DHT22;2392;52.578;13.426;2023-02-18T13:30:25;10.00;99.90
4757;DHT22;2392;52.578;13.426;2023-02-18T13:33:02;9.90;99.90
4757;DHT22;2392;52.578;13.426;2023-02-18T13:35:36;10.00;99.90
4757;DHT22;2392;52.578;13.426;2023-02-18T13:38:25;10.00;99.90
4757;DHT22;2392;52.578;13.426;2023-02-18T13:40:58;10.00;99.90
4757;DHT22;2392;52.578;13.426;2023-02-18T13:43:30;10.00;99.90
4757;DHT22;2392;52.578;13.426;2023-02-18T13:46:09;10.00;99.90
4757;DHT22;2392;52.578;13.426;2023-02-18T13:48:47;10.00;99.90
4757;DHT22;2392;52.578;13.426;2023-02-18T13:51:17;10.10;99.90
4757;DHT22;2392;52.578;13.426;2023-02-18T13:53:59;10.10;99.90
4757;DHT22;2392;52.578;13.426;2023-02-18T13:56:28;10.10;99.90
4757;DHT22;2392;52.578;13.426;2023-02-18T13:59:00;10.20;99.90
4757;DHT22;2392;52.578;13.426;2023-02-18T14:01:41;10.20;99.90
4757;DHT22;2392;52.578;13.426;2023-02-18T14:04:34;10.20;99.90
4757;DHT22;2392;52.578;13.426;2023-02-18T14:10:24;10.20;99.90
4757;DHT22;2392;52.578;13.426;2023-02-18T14:13:23;10.20;99.90
4757;DHT22;2392;52.578;13.426;2023-02-18T14:15:56;10.20;99.90
4757;DHT22;2392;52.578;13.426;2023-02-18T14:18:30;10.10;99.90
4757;DHT22;2392;52.578;13.426;2023-02-18T14:21:19;10.10;99.90
4757;DHT22;2392;52.578;13.426;2023-02-18T14:24:01;10.20;99.90
4757;DHT22;2392;52.578;13.426;2023-02-18T14:26:30;10.20;99.90
4757;DHT22;2392;52.578;13.426;2023-02-18T14:29:04;10.20;99.90
4757;DHT22;2392;52.578;13.426;2023-02-18T14:31:45;10.20;99.90
4757;DHT22;2392;52.578;13.426;2023-02-18T14:40:24;10.10;99.90
4757;DHT22;2392;52.578;13.426;2023-02-18T14:43:01;10.10;99.90
4757;DHT22;2392;52.578;13.426;2023-02-18T14:45:39;10.10;99.90
4757;DHT22;2392;52.578;13.426;2023-02-18T14:48:41;10.10;99.90
4757;DHT22;2392;52.578;13.426;2023-02-18T14:51:14;10.10;99.90
4757;DHT22;2392;52.578;13.426;2023-02-18T14:53:44;10.10;99.90
4757;DHT22;2392;52.578;13.426;2023-02-18T14:56:14;10.20;99.90
4757;DHT22;2392;52.578;13.426;2023-02-18T14:58:46;10.20;99.90
4757;DHT22;2392;52.578;13.426;2023-02-18T15:01:17;10.20;99.90
4757;DHT22;2392;52.578;13.426;2023-02-18T15:03:45;10.20;99.90
4757;DHT22;2392;52.578;13.426;2023-02-18T15:06:32;10.20;99.90
4757;DHT22;2392;52.578;13.426;2023-02-18T15:09:16;10.10;99.90
4757;DHT22;2392;52.578;13.426;2023-02-18T15:11:46;10.10;99.90
4757;DHT22;2392;52.578;13.426;2023-02-18T15:14:16;10.10;99.90
4757;DHT22;2392;52.578;13.426;2023-02-18T15:16:45;10.10;99.90
4757;DHT22;2392;52.578;13.426;2023-02-18T15:19:14;10.00;99.90
4757;DHT22;2392;52.578;13.426;2023-02-18T15:21:45;10.00;99.90
4757;DHT22;2392;52.578;13.426;2023-02-18T15:24:22;10.00;99.90
4757;DHT22;2392;52.578;13.426;2023-02-18T15:26:50;10.00;99.90
4757;DHT22;2392;52.578;13.426;2023-02-18T15:29:20;10.00;99.90
4757;DHT22;2392;52.578;13.426;2023-02-18T15:31:47;9.80;99.90
4757;DHT22;2392;52.578;13.426;2023-02-18T15:34:34;9.70;99.90
4757;DHT22;2392;52.578;13.426;2023-02-18T15:37:05;9.60;99.90
4757;DHT22;2392;52.578;13.426;2023-02-18T15:39:33;9.50;99.90
4757;DHT22;2392;52.578;13.426;2023-02-18T15:42:07;9.50;99.90
4757;DHT22;2392;52.578;13.426;2023-02-18T15:44:36;9.50;99.90
4757;DHT22;2392;52.578;13.426;2023-02-18T15:47:05;9.40;99.90
4757;DHT22;2392;52.578;13.426;2023-02-18T15:49:35;9.40;99.90
4757;DHT22;2392;52.578;13.426;2023-02-18T15:52:04;9.40;99.90
4757;DHT22;2392;52.578;13.426;2023-02-18T15:54:37;9.40;99.90
4757;DHT22;2392;52.578;13.426;2023-02-18T15:57:06;9.40;99.90
4757;DHT22;2392;52.578;13.426;2023-02-18T15:59:43;9.40;99.90
4757;DHT22;2392;52.578;13.426;2023-02-18T16:02:15;9.40;99.90
4757;DHT22;2392;52.578;13.426;2023-02-18T16:04:46;9.30;99.90
4757;DHT22;2392;52.578;13.426;2023-02-18T16:07:25;9.30;99.90
4757;DHT22;2392;52.578;13.426;2023-02-18T16:10:12;9.30;99.90
4757;DHT22;2392;52.578;13.426;2023-02-18T16:12:40;9.20;99.90
4757;DHT22;2392;52.578;13.426;2023-02-18T16:15:15;9.20;99.90
4757;DHT22;2392;52.578;13.426;2023-02-18T16:17:43;9.20;99.90
4757;DHT22;2392;52.578;13.426;2023-02-18T16:20:21;9.10;99.90
4757;DHT22;2392;52.578;13.426;2023-02-18T16:22:52;9.20;99.90
4757;DHT22;2392;52.578;13.426;2023-02-18T16:25:23;9.20;99.90
4757;DHT22;2392;52.578;13.426;2023-02-18T16:27:53;9.10;99.90
4757;DHT22;2392;52.578;13.426;2023-02-18T16:30:21;9.10;99.90
4757;DHT22;2392;52.578;13.426;2023-02-18T16:32:49;9.10;99.90
4757;DHT22;2392;52.578;13.426;2023-02-18T16:35:17;9.10;99.90
4757;DHT22;2392;52.578;13.426;2023-02-18T16:37:44;9.00;99.90
4757;DHT22;2392;52.578;13.426;2023-02-18T16:40:25;8.90;99.90
4757;DHT22;2392;52.578;13.426;2023-02-18T16:42:54;8.80;99.90